createdAt,value
2023-03-01T00:01:06.058Z,22.42
2023-03-01T00:03:33.374Z,22.20
2023-03-01T00:05:59.950Z,17.20
2023-03-01T00:08:27.242Z,23.48
2023-03-01T00:11:23.077Z,23.35
2023-03-01T00:13:52.062Z,19.48
2023-03-01T00:16:26.443Z,23.60
2023-03-01T00:18:58.395Z,22.00
2023-03-01T00:21:25.861Z,22.02
2023-03-01T00:23:54.470Z,20.83
2023-03-01T00:26:22.593Z,24.25
2023-03-01T00:28:49.550Z,23.88
2023-03-01T00:31:19.194Z,24.70
2023-03-01T00:33:46.103Z,26.65
2023-03-01T00:36:15.350Z,21.08
2023-03-01T00:38:44.452Z,21.52
2023-03-01T00:41:14.189Z,21.83
2023-03-01T00:43:41.251Z,23.88
2023-03-01T00:46:12.058Z,18.90
2023-03-01T00:48:38.584Z,21.33
2023-03-01T00:51:29.239Z,23.35
2023-03-01T00:53:59.441Z,23.77
2023-03-01T00:56:26.289Z,17.08
2023-03-01T00:58:52.781Z,24.45
2023-03-01T01:01:22.645Z,18.58
2023-03-01T01:03:57.948Z,22.50
2023-03-01T01:06:25.802Z,17.10
2023-03-01T01:08:53.941Z,22.27
2023-03-01T01:11:21.463Z,22.75
2023-03-01T01:13:49.134Z,20.25
2023-03-01T01:16:17.145Z,24.30
2023-03-01T01:18:44.098Z,17.63
2023-03-01T01:21:13.332Z,19.73
2023-03-01T01:23:41.560Z,20.73
2023-03-01T01:26:11.100Z,20.88
2023-03-01T01:28:37.832Z,21.92
2023-03-01T01:31:05.644Z,23.13
2023-03-01T01:33:32.561Z,25.58
2023-03-01T01:35:59.081Z,19.38
2023-03-01T01:38:25.966Z,22.70
2023-03-01T01:40:52.471Z,28.27
2023-03-01T01:43:26.026Z,20.87
2023-03-01T01:45:57.894Z,21.15
2023-03-01T01:48:41.461Z,22.60
2023-03-01T01:51:12.487Z,17.80
2023-03-01T01:53:40.921Z,24.65
2023-03-01T01:56:12.121Z,20.52
2023-03-01T01:58:41.613Z,22.43
2023-03-01T02:01:08.466Z,24.30
2023-03-01T02:03:38.495Z,27.40
2023-03-01T02:06:12.450Z,22.48
2023-03-01T02:08:42.251Z,22.38
2023-03-01T02:11:10.660Z,20.75
2023-03-01T02:13:37.661Z,18.80
2023-03-01T02:16:09.279Z,20.45
2023-03-01T02:21:39.937Z,19.02
2023-03-01T02:24:29.861Z,19.25
2023-03-01T02:26:58.068Z,18.83
2023-03-01T02:29:25.303Z,20.60
2023-03-01T02:31:57.532Z,19.85
2023-03-01T02:34:27.895Z,22.27
2023-03-01T02:36:58.369Z,23.67
2023-03-01T02:39:30.034Z,22.20
2023-03-01T02:41:58.650Z,21.60
2023-03-01T02:44:25.677Z,23.23
2023-03-01T02:46:55.240Z,18.77
2023-03-01T02:49:31.619Z,21.05
2023-03-01T02:52:07.396Z,22.58
2023-03-01T02:54:39.926Z,23.08
2023-03-01T02:57:06.778Z,21.92
2023-03-01T02:59:40.174Z,20.15
2023-03-01T03:02:37.028Z,23.42
2023-03-01T03:05:18.819Z,22.50
2023-03-01T03:07:47.505Z,20.13
2023-03-01T03:10:17.161Z,23.60
2023-03-01T03:12:43.627Z,20.23
2023-03-01T03:15:13.477Z,24.92
2023-03-01T03:17:43.046Z,26.27
2023-03-01T03:20:13.056Z,23.35
2023-03-01T03:22:40.854Z,21.27
2023-03-01T03:25:11.752Z,22.23
2023-03-01T03:27:43.854Z,22.20
2023-03-01T03:30:14.626Z,21.45
2023-03-01T03:32:42.483Z,19.85
2023-03-01T03:35:10.946Z,19.33
2023-03-01T03:38:00.099Z,21.35
2023-03-01T03:40:31.638Z,20.42
2023-03-01T03:42:58.349Z,19.08
2023-03-01T03:45:25.207Z,21.63
2023-03-01T03:47:51.758Z,21.55
2023-03-01T03:50:18.971Z,23.27
2023-03-01T03:52:45.693Z,18.95
2023-03-01T03:55:13.192Z,22.40
2023-03-01T03:57:42.971Z,25.58
2023-03-01T04:00:15.893Z,19.63
2023-03-01T04:02:43.510Z,19.05
2023-03-01T04:05:13.321Z,24.23
2023-03-01T04:07:39.939Z,20.33
2023-03-01T04:10:10.168Z,25.23
2023-03-01T04:12:37.026Z,23.35
2023-03-01T04:15:13.594Z,23.85
2023-03-01T04:17:41.266Z,18.73
2023-03-01T04:20:12.928Z,22.02
2023-03-01T04:25:07.877Z,19.48
2023-03-01T04:27:35.521Z,23.63
2023-03-01T04:30:04.004Z,18.48
2023-03-01T04:32:30.734Z,20.52
2023-03-01T04:34:57.193Z,18.98
2023-03-01T04:37:25.006Z,20.20
2023-03-01T04:39:51.553Z,22.55
2023-03-01T04:42:18.774Z,21.35
2023-03-01T04:44:46.137Z,23.70
2023-03-01T04:47:13.575Z,23.90
2023-03-01T04:49:40.018Z,22.35
2023-03-01T04:52:06.665Z,22.30
2023-03-01T04:54:34.822Z,23.13
2023-03-01T04:57:02.894Z,23.30
2023-03-01T04:59:29.980Z,21.70
2023-03-01T05:01:57.060Z,23.23
2023-03-01T05:04:24.515Z,23.88
2023-03-01T05:06:51.130Z,21.58
2023-03-01T05:09:17.778Z,23.63
2023-03-01T05:11:44.535Z,21.95
2023-03-01T05:14:11.939Z,23.33
2023-03-01T05:16:38.523Z,23.83
2023-03-01T05:19:16.052Z,21.98
2023-03-01T05:22:02.726Z,29.75
2023-03-01T05:24:31.522Z,30.08
2023-03-01T05:26:58.019Z,29.65
2023-03-01T05:29:26.832Z,30.42
2023-03-01T05:31:58.896Z,28.52
2023-03-01T05:34:27.246Z,25.02
2023-03-01T05:36:54.664Z,20.77
2023-03-01T05:39:23.371Z,21.80
2023-03-01T05:41:53.884Z,22.42
2023-03-01T05:44:21.196Z,22.60
2023-03-01T05:46:47.792Z,21.67
2023-03-01T05:49:14.954Z,22.40
2023-03-01T05:51:42.517Z,22.20
2023-03-01T05:54:10.383Z,21.48
2023-03-01T05:56:37.605Z,23.40
2023-03-01T05:59:05.950Z,19.55
2023-03-01T06:01:33.805Z,23.83
2023-03-01T06:04:00.255Z,20.85
2023-03-01T06:06:29.020Z,23.85
2023-03-01T06:08:55.861Z,23.27
2023-03-01T06:11:22.671Z,23.75
2023-03-01T06:13:49.179Z,22.75
2023-03-01T06:16:15.757Z,21.58
2023-03-01T06:18:42.352Z,21.42
2023-03-01T06:21:09.158Z,21.75
2023-03-01T06:23:36.232Z,21.00
2023-03-01T06:26:07.471Z,24.23
2023-03-01T06:28:34.299Z,21.10
2023-03-01T06:31:01.026Z,22.05
2023-03-01T06:33:27.453Z,21.13
2023-03-01T06:35:57.453Z,19.92
2023-03-01T06:38:25.047Z,24.05
2023-03-01T06:40:55.745Z,20.50
2023-03-01T06:43:22.772Z,26.10
2023-03-01T06:45:49.255Z,19.83
2023-03-01T06:48:15.714Z,23.30
2023-03-01T06:50:42.277Z,21.15
2023-03-01T06:53:08.794Z,20.38
2023-03-01T06:55:35.250Z,22.17
2023-03-01T06:58:03.517Z,24.42
2023-03-01T07:00:30.805Z,28.52
2023-03-01T07:02:59.898Z,19.95
2023-03-01T07:05:26.348Z,47.47
2023-03-01T07:07:54.891Z,23.33
2023-03-01T07:10:21.498Z,23.17
2023-03-01T07:12:48.063Z,23.25
2023-03-01T07:15:15.921Z,26.83
2023-03-01T07:17:42.413Z,32.00
2023-03-01T07:20:09.704Z,25.05
2023-03-01T07:22:36.165Z,29.35
2023-03-01T07:25:02.725Z,20.58
2023-03-01T07:27:29.214Z,27.33
2023-03-01T07:29:55.636Z,22.60
2023-03-01T07:32:22.156Z,23.00
2023-03-01T07:34:48.760Z,24.25
2023-03-01T07:37:15.314Z,26.60
2023-03-01T07:39:41.761Z,23.17
2023-03-01T07:42:08.392Z,23.30
2023-03-01T07:44:35.544Z,24.77
2023-03-01T07:47:02.022Z,26.10
2023-03-01T07:49:28.498Z,25.55
2023-03-01T07:51:55.086Z,22.95
2023-03-01T07:54:21.838Z,21.05
2023-03-01T07:56:48.440Z,26.35
2023-03-01T07:59:15.058Z,31.38
2023-03-01T08:01:41.582Z,25.38
2023-03-01T08:04:09.453Z,25.75
2023-03-01T08:06:37.203Z,25.88
2023-03-01T08:09:03.854Z,20.55
2023-03-01T08:11:30.292Z,23.52
2023-03-01T08:13:58.305Z,22.92
2023-03-01T08:16:25.115Z,23.65
2023-03-01T08:18:51.682Z,22.27
2023-03-01T08:21:19.429Z,20.17
2023-03-01T08:23:46.095Z,22.52
2023-03-01T08:26:19.480Z,24.95
2023-03-01T08:28:47.162Z,28.17
2023-03-01T08:31:27.156Z,24.15
2023-03-01T08:33:58.731Z,23.25
2023-03-01T08:36:27.506Z,24.10
2023-03-01T08:38:54.564Z,22.67
2023-03-01T08:41:21.612Z,24.10
2023-03-01T08:43:48.195Z,24.20
2023-03-01T08:46:14.819Z,27.60
2023-03-01T08:48:43.925Z,30.15
2023-03-01T08:51:16.972Z,29.13
2023-03-01T08:53:44.164Z,26.20
2023-03-01T08:56:11.979Z,20.10
2023-03-01T08:58:40.772Z,28.38
2023-03-01T09:01:15.868Z,26.50
2023-03-01T09:03:43.550Z,25.30
2023-03-01T09:06:11.079Z,23.88
2023-03-01T09:08:39.423Z,27.58
2023-03-01T09:11:07.778Z,26.40
2023-03-01T09:13:35.296Z,24.38
2023-03-01T09:16:03.910Z,20.35
2023-03-01T09:18:30.539Z,26.73
2023-03-01T09:21:09.273Z,25.90
2023-03-01T09:23:37.642Z,27.13
2023-03-01T09:26:04.355Z,24.85
2023-03-01T09:28:30.823Z,24.40
2023-03-01T09:31:01.862Z,23.13
2023-03-01T09:33:30.179Z,24.38
2023-03-01T09:35:58.847Z,29.55
2023-03-01T09:38:26.024Z,26.58
2023-03-01T09:40:54.438Z,21.27
2023-03-01T09:43:46.605Z,27.70
2023-03-01T09:46:17.604Z,25.05
2023-03-01T09:48:50.004Z,23.77
2023-03-01T09:51:23.372Z,25.65
2023-03-01T09:53:50.167Z,21.10
2023-03-01T09:56:23.341Z,24.40
2023-03-01T09:58:54.708Z,20.33
2023-03-01T10:01:39.464Z,22.70
2023-03-01T10:04:12.377Z,22.15
2023-03-01T10:06:45.462Z,26.50
2023-03-01T10:09:17.101Z,20.83
2023-03-01T10:11:50.868Z,23.48
2023-03-01T10:14:26.160Z,20.83
2023-03-01T10:16:59.743Z,25.13
2023-03-01T10:19:38.667Z,22.10
2023-03-01T10:22:29.521Z,25.75
2023-03-01T10:24:59.520Z,21.38
2023-03-01T10:27:42.681Z,23.65
2023-03-01T10:30:17.143Z,26.10
2023-03-01T10:32:45.246Z,28.45
2023-03-01T10:35:19.557Z,22.00
2023-03-01T10:38:09.026Z,20.90
2023-03-01T10:40:36.990Z,23.42
2023-03-01T10:43:06.770Z,25.40
2023-03-01T10:45:38.897Z,26.20
2023-03-01T10:48:37.658Z,24.20
2023-03-01T10:51:04.035Z,28.80
2023-03-01T10:53:41.480Z,24.80
2023-03-01T10:56:09.417Z,19.88
2023-03-01T10:58:38.863Z,23.83
2023-03-01T11:01:28.129Z,24.05
2023-03-01T11:04:07.052Z,23.75
2023-03-01T11:06:39.002Z,26.58
2023-03-01T11:09:22.236Z,21.67
2023-03-01T11:11:57.091Z,23.17
2023-03-01T11:14:36.638Z,21.98
2023-03-01T11:17:14.729Z,26.20
2023-03-01T11:19:42.529Z,25.08
2023-03-01T11:22:17.507Z,22.88
2023-03-01T11:25:08.968Z,22.92
2023-03-01T11:27:43.149Z,26.20
2023-03-01T11:30:42.522Z,23.38
2023-03-01T11:33:08.942Z,28.52
2023-03-01T11:35:39.034Z,21.48
2023-03-01T11:38:26.371Z,24.45
2023-03-01T11:41:00.943Z,20.27
2023-03-01T11:43:34.699Z,20.30
2023-03-01T11:46:34.138Z,21.25
2023-03-01T11:49:18.645Z,19.52
2023-03-01T11:51:51.120Z,24.50
2023-03-01T11:54:41.003Z,22.55
2023-03-01T11:57:43.464Z,26.20
2023-03-01T12:00:40.624Z,23.70
2023-03-01T12:03:44.375Z,23.70
2023-03-01T12:06:41.459Z,21.08
2023-03-01T12:09:19.920Z,21.00
2023-03-01T12:12:05.135Z,23.30
2023-03-01T12:14:43.656Z,22.23
2023-03-01T12:17:26.069Z,22.17
2023-03-01T12:20:22.873Z,21.23
2023-03-01T12:23:23.444Z,22.98
2023-03-01T12:26:25.607Z,18.10
2023-03-01T12:31:43.232Z,20.13
2023-03-01T12:34:21.071Z,26.50
2023-03-01T12:37:06.388Z,23.95
2023-03-01T12:39:55.500Z,23.52
2023-03-01T12:42:28.169Z,19.05
2023-03-01T12:45:13.071Z,31.63
2023-03-01T12:47:54.856Z,25.20
2023-03-01T12:50:25.154Z,23.92
2023-03-01T12:52:55.998Z,23.83
2023-03-01T12:55:41.403Z,23.57
2023-03-01T12:58:43.691Z,18.73
2023-03-01T13:01:24.989Z,21.45
2023-03-01T13:03:57.279Z,21.20
2023-03-01T13:06:56.898Z,18.58
2023-03-01T13:09:34.693Z,19.73
2023-03-01T13:12:02.923Z,19.70
2023-03-01T13:14:33.796Z,23.67
2023-03-01T13:17:00.321Z,19.67
2023-03-01T13:19:33.324Z,22.23
2023-03-01T13:22:00.292Z,23.17
2023-03-01T13:24:28.489Z,21.63
2023-03-01T13:27:06.852Z,23.23
2023-03-01T13:29:51.888Z,22.80
2023-03-01T13:32:23.473Z,25.30
2023-03-01T13:34:53.674Z,19.55
2023-03-01T13:37:23.835Z,24.25
2023-03-01T13:39:51.101Z,22.98
2023-03-01T13:42:59.369Z,21.25
2023-03-01T13:45:40.417Z,23.77
2023-03-01T13:48:23.407Z,21.58
2023-03-01T13:50:55.532Z,25.50
2023-03-01T13:53:26.275Z,19.73
2023-03-01T13:55:59.905Z,23.65
2023-03-01T13:58:32.322Z,22.27
2023-03-01T14:01:07.854Z,22.42
2023-03-01T14:03:42.583Z,19.67
2023-03-01T14:06:16.210Z,23.75
2023-03-01T14:08:46.374Z,23.35
2023-03-01T14:11:53.266Z,18.88
2023-03-01T14:14:45.408Z,21.35
2023-03-01T14:17:23.787Z,18.50
2023-03-01T14:19:59.694Z,20.20
2023-03-01T14:22:32.971Z,21.38
2023-03-01T14:25:02.102Z,25.35
2023-03-01T14:27:40.320Z,21.33
2023-03-01T14:30:22.284Z,24.20
2023-03-01T14:33:00.833Z,20.63
2023-03-01T14:35:33.914Z,21.60
2023-03-01T14:38:00.509Z,19.80
2023-03-01T14:40:30.435Z,21.38
2023-03-01T14:43:00.605Z,20.30
2023-03-01T14:45:28.989Z,22.85
2023-03-01T14:47:56.987Z,22.83
2023-03-01T14:50:30.354Z,21.83
2023-03-01T14:53:00.442Z,18.77
2023-03-01T14:55:31.619Z,20.90
2023-03-01T14:57:58.837Z,20.58
2023-03-01T15:00:30.880Z,21.00
2023-03-01T15:03:02.743Z,26.30
2023-03-01T15:05:33.781Z,22.23
2023-03-01T15:08:02.898Z,20.70
2023-03-01T15:10:32.942Z,20.77
2023-03-01T15:13:23.003Z,20.83
2023-03-01T15:15:52.155Z,21.13
2023-03-01T15:18:20.657Z,24.27
2023-03-01T15:20:49.393Z,21.23
2023-03-01T15:23:25.286Z,22.63
2023-03-01T15:26:00.108Z,20.02
2023-03-01T15:28:30.356Z,19.02
2023-03-01T15:31:20.926Z,21.80
2023-03-01T15:33:50.302Z,18.98
2023-03-01T15:36:41.598Z,18.58
2023-03-01T15:39:38.231Z,21.33
2023-03-01T15:42:08.260Z,21.17
2023-03-01T15:44:43.423Z,19.77
2023-03-01T15:47:29.027Z,22.17
2023-03-01T15:49:56.923Z,20.85
2023-03-01T15:52:29.938Z,21.98
2023-03-01T15:55:02.395Z,21.77
2023-03-01T15:57:29.066Z,20.40
2023-03-01T15:59:55.589Z,23.38
2023-03-01T16:02:24.955Z,22.92
2023-03-01T16:04:51.615Z,22.10
2023-03-01T16:07:18.593Z,23.88
2023-03-01T16:09:45.153Z,23.55
2023-03-01T16:12:16.664Z,20.67
2023-03-01T16:14:43.720Z,20.88
2023-03-01T16:17:11.139Z,21.27
2023-03-01T16:19:41.961Z,21.27
2023-03-01T16:22:11.108Z,25.27
2023-03-01T16:24:37.505Z,22.60
2023-03-01T16:27:04.678Z,21.95
2023-03-01T16:29:31.241Z,18.58
2023-03-01T16:31:57.715Z,20.27
2023-03-01T16:34:24.439Z,24.63
2023-03-01T16:36:50.874Z,20.27
2023-03-01T16:39:17.671Z,22.67
2023-03-01T16:41:44.422Z,20.98
2023-03-01T16:44:10.919Z,18.92
2023-03-01T16:46:37.487Z,19.73
2023-03-01T16:49:04.208Z,22.35
2023-03-01T16:51:31.962Z,22.45
2023-03-01T16:53:58.671Z,21.10
2023-03-01T16:56:25.250Z,21.70
2023-03-01T16:58:51.683Z,18.80
2023-03-01T17:01:20.948Z,21.40
2023-03-01T17:03:49.513Z,22.45
2023-03-01T17:06:21.133Z,22.15
2023-03-01T17:11:17.297Z,22.02
2023-03-01T17:13:44.621Z,24.42
2023-03-01T17:16:15.100Z,27.38
2023-03-01T17:18:41.613Z,22.95
2023-03-01T17:21:08.501Z,21.92
2023-03-01T17:23:36.607Z,24.10
2023-03-01T17:26:03.709Z,21.55
2023-03-01T17:28:32.694Z,21.90
2023-03-01T17:31:00.814Z,21.35
2023-03-01T17:33:27.446Z,20.98
2023-03-01T17:35:53.965Z,22.73
2023-03-01T17:38:20.425Z,24.75
2023-03-01T17:40:46.895Z,25.83
2023-03-01T17:43:15.483Z,25.98
2023-03-01T17:45:44.580Z,21.88
2023-03-01T17:48:11.152Z,22.88
2023-03-01T17:50:40.326Z,22.15
2023-03-01T17:53:09.945Z,22.17
2023-03-01T17:55:38.243Z,21.63
2023-03-01T17:58:06.031Z,39.65
2023-03-01T18:00:33.034Z,97.88
2023-03-01T18:02:59.599Z,48.97
2023-03-01T18:05:26.277Z,26.35
2023-03-01T18:07:53.948Z,39.78
2023-03-01T18:10:21.077Z,36.17
2023-03-01T18:12:47.541Z,32.47
2023-03-01T18:15:14.150Z,29.33
2023-03-01T18:17:40.746Z,34.35
2023-03-01T18:20:08.059Z,46.88
2023-03-01T18:22:34.652Z,30.88
2023-03-01T18:25:01.118Z,36.17
2023-03-01T18:27:27.633Z,33.67
2023-03-01T18:29:54.809Z,32.10
2023-03-01T18:32:22.084Z,32.10
2023-03-01T18:34:48.596Z,27.75
2023-03-01T18:37:15.569Z,28.83
2023-03-01T18:39:42.272Z,31.77
2023-03-01T18:42:08.773Z,28.63
2023-03-01T18:44:36.376Z,25.52
2023-03-01T18:47:02.803Z,31.58
2023-03-01T18:49:29.496Z,24.80
2023-03-01T18:51:56.560Z,44.80
2023-03-01T18:54:23.075Z,35.45
2023-03-01T18:56:49.591Z,47.42
2023-03-01T18:59:16.134Z,31.42
2023-03-01T19:01:43.227Z,34.15
2023-03-01T19:04:10.941Z,33.55
2023-03-01T19:06:37.779Z,32.45
2023-03-01T19:09:06.550Z,35.20
2023-03-01T19:11:35.284Z,47.53
2023-03-01T19:14:02.412Z,35.28
2023-03-01T19:16:31.313Z,37.40
2023-03-01T19:19:01.158Z,38.55
2023-03-01T19:21:30.910Z,54.38
2023-03-01T19:23:58.449Z,33.33
2023-03-01T19:26:27.143Z,36.70
2023-03-01T19:28:54.799Z,32.80
2023-03-01T19:31:25.630Z,35.13
2023-03-01T19:33:59.477Z,32.63
2023-03-01T19:36:35.079Z,36.72
2023-03-01T19:39:06.355Z,33.80
2023-03-01T19:41:32.896Z,36.58
2023-03-01T19:44:02.621Z,35.35
2023-03-01T19:46:29.362Z,32.40
2023-03-01T19:48:56.612Z,33.85
2023-03-01T19:51:23.061Z,38.03
2023-03-01T19:53:49.597Z,40.45
2023-03-01T19:56:16.090Z,30.02
2023-03-01T19:58:43.243Z,33.05
2023-03-01T20:01:16.096Z,32.67
2023-03-01T20:03:42.904Z,33.75
2023-03-01T20:06:15.488Z,26.48
2023-03-01T20:08:42.570Z,33.75
2023-03-01T20:11:12.102Z,31.70
2023-03-01T20:13:38.558Z,34.92
2023-03-01T20:16:05.887Z,33.47
2023-03-01T20:18:33.172Z,32.40
2023-03-01T20:21:00.086Z,30.17
2023-03-01T20:23:27.005Z,35.78
2023-03-01T20:26:16.297Z,30.73
2023-03-01T20:28:43.077Z,38.13
2023-03-01T20:31:13.460Z,30.48
2023-03-01T20:33:40.303Z,31.85
2023-03-01T20:36:08.633Z,30.13
2023-03-01T20:38:35.942Z,28.75
2023-03-01T20:41:06.049Z,30.17
2023-03-01T20:43:33.480Z,31.83
2023-03-01T20:46:04.702Z,27.88
2023-03-01T20:48:31.214Z,33.53
2023-03-01T20:51:01.493Z,26.80
2023-03-01T20:53:29.188Z,30.20
2023-03-01T20:55:55.630Z,33.10
2023-03-01T20:58:22.067Z,31.17
2023-03-01T21:00:51.859Z,34.33
2023-03-01T21:03:18.356Z,31.73
2023-03-01T21:05:44.737Z,33.28
2023-03-01T21:08:11.251Z,36.90
2023-03-01T21:10:37.716Z,28.75
2023-03-01T21:13:04.142Z,32.08
2023-03-01T21:15:30.536Z,31.10
2023-03-01T21:17:57.110Z,30.08
2023-03-01T21:20:24.481Z,29.33
2023-03-01T21:22:50.927Z,29.17
2023-03-01T21:25:17.341Z,29.52
2023-03-01T21:27:43.766Z,32.00
2023-03-01T21:30:11.039Z,27.05
2023-03-01T21:32:37.460Z,30.35
2023-03-01T21:35:04.061Z,28.75
2023-03-01T21:37:30.547Z,33.90
2023-03-01T21:39:57.319Z,32.95
2023-03-01T21:42:24.047Z,33.30
2023-03-01T21:44:50.458Z,30.58
2023-03-01T21:47:16.925Z,30.02
2023-03-01T21:49:43.325Z,35.60
2023-03-01T21:52:16.603Z,33.08
2023-03-01T21:54:43.775Z,32.47
2023-03-01T21:57:10.796Z,32.53
2023-03-01T21:59:37.376Z,31.75
2023-03-01T22:02:03.869Z,34.88
2023-03-01T22:04:30.309Z,25.48
2023-03-01T22:06:56.807Z,29.08
2023-03-01T22:09:24.535Z,33.50
2023-03-01T22:12:02.413Z,31.85
2023-03-01T22:14:30.827Z,30.75
2023-03-01T22:16:57.952Z,30.85
2023-03-01T22:19:24.511Z,31.10
2023-03-01T22:21:52.744Z,31.35
2023-03-01T22:24:22.911Z,31.77
2023-03-01T22:26:51.108Z,31.88
2023-03-01T22:29:23.933Z,28.08
2023-03-01T22:31:52.891Z,32.03
2023-03-01T22:34:20.577Z,37.25
2023-03-01T22:36:47.940Z,29.75
2023-03-01T22:39:16.431Z,31.20
2023-03-01T22:41:45.573Z,31.17
2023-03-01T22:44:14.690Z,38.25
2023-03-01T22:46:41.910Z,33.75
2023-03-01T22:49:09.796Z,30.45
2023-03-01T22:51:38.081Z,30.60
2023-03-01T22:54:05.415Z,27.77
2023-03-01T22:56:34.848Z,28.65
2023-03-01T22:59:04.735Z,33.03
2023-03-01T23:01:31.849Z,33.30
2023-03-01T23:03:58.530Z,28.60
2023-03-01T23:06:25.248Z,31.50
2023-03-01T23:08:54.400Z,26.20
2023-03-01T23:11:22.101Z,31.25
2023-03-01T23:13:49.209Z,32.08
2023-03-01T23:16:16.854Z,29.70
2023-03-01T23:18:44.164Z,29.30
2023-03-01T23:21:16.520Z,28.30
2023-03-01T23:23:43.406Z,25.67
2023-03-01T23:26:10.025Z,33.47
2023-03-01T23:28:40.332Z,31.33
2023-03-01T23:31:09.822Z,28.42
2023-03-01T23:33:39.392Z,31.20
2023-03-01T23:36:21.352Z,28.05
2023-03-01T23:38:50.046Z,28.02
2023-03-01T23:41:20.439Z,28.52
2023-03-01T23:43:48.522Z,24.92
2023-03-01T23:46:16.536Z,35.65
2023-03-01T23:48:43.969Z,32.67
2023-03-01T23:51:12.241Z,32.45
2023-03-01T23:53:42.699Z,30.67
2023-03-01T23:56:12.195Z,29.40
2023-03-01T23:58:38.840Z,35.58
